Mendota Heights, Minnesota
Current Conditions -  °F | °C
As of 9:53 PM on Tuesday 21 Oct 2014 (Local Time) from KMSP Reporting Station
Clear Clear  
Wind Chill: 44°   Ceiling: Unl
Heat Index: 49°   Visibility: 10mi
Dew Point: 38°   Wind: 12mph
Humidity: 66%   Direction: 140°SE
Pressure: 30.17"   Gusts: NA
Location:  44.8725°N, 93.1463°W
Report Text: KMSP 220253Z 14010KT 10SM CLR 09/03 A3017 RMK AO2 SLP222 T00940033 53008
Loading
Personal Weather Stations






























Interactive Weather Map
Tropical Storm Tracking
New forecast layout! Learn more

10-Day Weather Forecast

Advertisements
Track Severe Weather on mobile